createdAt,value
2022-10-11T00:00:32.167Z,10.10
2022-10-11T00:03:02.325Z,10.10
2022-10-11T00:05:30.824Z,10.09
2022-10-11T00:07:59.474Z,10.09
2022-10-11T00:10:28.202Z,10.13
2022-10-11T00:12:56.733Z,10.12
2022-10-11T00:15:27.408Z,10.19
2022-10-11T00:17:55.717Z,10.25
2022-10-11T00:20:26.549Z,10.29
2022-10-11T00:22:54.945Z,10.15
2022-10-11T00:25:23.333Z,10.01
2022-10-11T00:27:51.620Z,9.96
2022-10-11T00:30:20.038Z,9.94
2022-10-11T00:32:50.502Z,9.96
2022-10-11T00:35:22.484Z,9.98
2022-10-11T00:37:52.196Z,9.95
2022-10-11T00:40:22.717Z,9.86
2022-10-11T00:42:50.760Z,9.91
2022-10-11T00:46:01.206Z,9.85
2022-10-11T00:48:36.370Z,9.81
2022-10-11T00:51:09.604Z,9.85
2022-10-11T00:53:45.152Z,9.85
2022-10-11T00:56:18.556Z,9.82
2022-10-11T00:58:49.681Z,9.77
2022-10-11T01:01:20.526Z,9.74
2022-10-11T01:03:52.101Z,9.78
2022-10-11T01:06:21.242Z,9.79
2022-10-11T01:08:55.399Z,9.74
2022-10-11T01:11:26.568Z,9.68
2022-10-11T01:14:12.984Z,9.67
2022-10-11T01:16:49.292Z,9.70
2022-10-11T01:19:37.257Z,9.65
2022-10-11T01:22:12.037Z,9.67
2022-10-11T01:25:17.828Z,9.65
2022-10-11T01:28:01.725Z,9.57
2022-10-11T01:30:36.495Z,9.54
2022-10-11T01:33:15.933Z,9.57
2022-10-11T01:35:53.932Z,9.51
2022-10-11T01:38:26.978Z,9.46
2022-10-11T01:41:03.843Z,9.43
2022-10-11T01:43:34.634Z,9.51
2022-10-11T01:46:06.698Z,9.50
2022-10-11T01:48:49.613Z,9.47
2022-10-11T01:51:22.922Z,9.40
2022-10-11T01:54:06.594Z,9.46
2022-10-11T01:57:15.142Z,9.33
2022-10-11T01:59:57.250Z,9.36
2022-10-11T02:02:42.467Z,9.37
2022-10-11T02:05:20.189Z,9.28
2022-10-11T02:08:01.010Z,9.24
2022-10-11T02:10:35.321Z,9.20
2022-10-11T02:13:09.626Z,9.15
2022-10-11T02:15:42.373Z,9.09
2022-10-11T02:18:19.452Z,9.10
2022-10-11T02:20:50.217Z,9.10
2022-10-11T02:23:27.838Z,9.12
2022-10-11T02:25:58.741Z,9.10
2022-10-11T02:28:33.012Z,9.15
2022-10-11T02:31:04.161Z,9.12
2022-10-11T02:33:42.265Z,9.17
2022-10-11T02:36:17.376Z,9.34
2022-10-11T02:38:50.125Z,9.38
2022-10-11T02:41:25.900Z,9.23
2022-10-11T02:44:02.390Z,9.19
2022-10-11T02:46:34.666Z,9.22
2022-10-11T02:49:05.390Z,9.23
2022-10-11T02:51:34.367Z,9.22
2022-10-11T02:54:05.299Z,9.31
2022-10-11T02:56:33.857Z,9.41
2022-10-11T02:59:02.158Z,9.41
2022-10-11T03:01:31.018Z,9.34
2022-10-11T03:04:04.418Z,9.27
2022-10-11T03:06:34.197Z,9.19
2022-10-11T03:09:05.363Z,9.15
2022-10-11T03:11:37.636Z,9.15
2022-10-11T03:14:12.412Z,9.13
2022-10-11T03:16:43.173Z,9.09
2022-10-11T03:19:19.535Z,9.10
2022-10-11T03:21:47.736Z,9.09
2022-10-11T03:24:18.623Z,9.07
2022-10-11T03:26:47.171Z,9.07
2022-10-11T03:29:18.708Z,9.15
2022-10-11T03:31:50.348Z,9.16
2022-10-11T03:34:23.571Z,9.17
2022-10-11T03:36:56.459Z,9.20
2022-10-11T03:39:25.767Z,9.23
2022-10-11T03:41:55.964Z,9.27
2022-10-11T03:44:23.999Z,9.33
2022-10-11T03:46:57.488Z,9.38
2022-10-11T03:49:27.330Z,9.55
2022-10-11T03:51:56.370Z,9.65
2022-10-11T03:54:26.563Z,9.59
2022-10-11T03:57:00.001Z,9.58
2022-10-11T03:59:29.209Z,9.65
2022-10-11T04:01:57.274Z,9.79
2022-10-11T04:04:34.680Z,9.85
2022-10-11T04:07:05.813Z,9.85
2022-10-11T04:09:35.002Z,9.85
2022-10-11T04:12:05.029Z,9.79
2022-10-11T04:14:36.920Z,9.84
2022-10-11T04:17:10.407Z,9.98
2022-10-11T04:19:45.811Z,10.01
2022-10-11T04:22:16.100Z,10.03
2022-10-11T04:24:45.603Z,10.01
2022-10-11T04:27:15.271Z,9.92
2022-10-11T04:29:45.845Z,9.88
2022-10-11T04:32:14.277Z,9.84
2022-10-11T04:34:44.142Z,9.84
2022-10-11T04:37:16.500Z,9.81
2022-10-11T04:39:47.640Z,9.84
2022-10-11T04:42:18.968Z,9.95
2022-10-11T04:44:48.043Z,9.99
2022-10-11T04:47:18.464Z,10.01
2022-10-11T04:49:49.359Z,9.95
2022-10-11T04:52:22.115Z,9.88
2022-10-11T04:54:55.390Z,9.92
2022-10-11T04:57:24.911Z,9.88
2022-10-11T04:59:53.233Z,9.91
2022-10-11T05:02:30.786Z,9.89
2022-10-11T05:05:06.594Z,9.85
2022-10-11T05:07:37.843Z,9.85
2022-10-11T05:10:09.983Z,9.86
2022-10-11T05:12:39.225Z,9.86
2022-10-11T05:15:10.865Z,9.88
2022-10-11T05:17:39.761Z,9.89
2022-10-11T05:20:11.128Z,9.85
2022-10-11T05:22:39.545Z,9.89
2022-10-11T05:25:08.296Z,9.91
2022-10-11T05:27:38.629Z,10.05
2022-10-11T05:30:10.936Z,10.05
2022-10-11T05:32:48.229Z,10.06
2022-10-11T05:35:24.065Z,10.08
2022-10-11T05:37:54.420Z,10.17
2022-10-11T05:40:25.543Z,10.22
2022-10-11T05:42:56.917Z,10.17
2022-10-11T05:45:25.393Z,10.03
2022-10-11T05:47:59.768Z,9.99
2022-10-11T05:50:31.595Z,9.98
2022-10-11T05:53:00.480Z,10.06
2022-10-11T05:55:36.489Z,10.19
2022-10-11T05:58:08.255Z,10.15
2022-10-11T06:00:39.262Z,10.15
2022-10-11T06:03:08.951Z,10.13
2022-10-11T06:05:40.080Z,10.19
2022-10-11T06:08:10.036Z,10.34
2022-10-11T06:10:44.051Z,10.50
2022-10-11T06:13:15.754Z,10.61
2022-10-11T06:15:46.269Z,10.60
2022-10-11T06:18:16.347Z,10.67
2022-10-11T06:20:53.663Z,10.74
2022-10-11T06:23:23.680Z,10.81
2022-10-11T06:26:00.339Z,10.94
2022-10-11T06:28:37.036Z,10.97
2022-10-11T06:31:09.616Z,10.94
2022-10-11T06:33:43.255Z,11.04
2022-10-11T06:36:21.422Z,11.08
2022-10-11T06:38:55.995Z,11.14
2022-10-11T06:41:26.842Z,11.23
2022-10-11T06:43:55.855Z,11.30
2022-10-11T06:46:28.734Z,11.44
2022-10-11T06:48:58.163Z,11.60
2022-10-11T06:51:31.717Z,11.71
2022-10-11T06:54:02.698Z,11.80
2022-10-11T06:56:33.054Z,11.87
2022-10-11T06:59:05.981Z,11.87
2022-10-11T07:01:43.169Z,11.91
2022-10-11T07:04:13.998Z,11.94
2022-10-11T07:06:48.019Z,12.05
2022-10-11T07:09:17.360Z,12.14
2022-10-11T07:11:46.331Z,12.13
2022-10-11T07:14:14.755Z,12.21
2022-10-11T07:16:49.915Z,12.29
2022-10-11T07:19:24.712Z,12.41
2022-10-11T07:22:09.470Z,12.57
2022-10-11T07:24:50.351Z,12.67
2022-10-11T07:27:22.691Z,12.72
2022-10-11T07:29:54.646Z,12.77
2022-10-11T07:32:25.139Z,12.80
2022-10-11T07:34:57.210Z,12.83
2022-10-11T07:37:36.837Z,12.90
2022-10-11T07:40:10.859Z,13.04
2022-10-11T07:42:40.463Z,13.20
2022-10-11T07:45:11.953Z,13.27
2022-10-11T07:47:46.784Z,13.35
2022-10-11T07:50:18.103Z,13.57
2022-10-11T07:52:49.918Z,13.69
2022-10-11T07:55:19.889Z,13.80
2022-10-11T07:57:49.733Z,13.99
2022-10-11T08:00:18.850Z,14.10
2022-10-11T08:03:15.175Z,14.12
2022-10-11T08:05:43.393Z,14.14
2022-10-11T08:08:16.580Z,14.24
2022-10-11T08:10:47.061Z,14.37
2022-10-11T08:13:15.317Z,14.41
2022-10-11T08:15:44.102Z,14.47
2022-10-11T08:18:18.753Z,14.48
2022-10-11T08:20:49.596Z,14.56
2022-10-11T08:23:22.419Z,14.68
2022-10-11T08:26:00.112Z,14.79
2022-10-11T08:28:31.196Z,14.98
2022-10-11T08:31:04.168Z,15.10
2022-10-11T08:33:32.651Z,15.16
2022-10-11T08:36:04.833Z,15.30
2022-10-11T08:38:37.980Z,15.39
2022-10-11T08:41:26.010Z,15.47
2022-10-11T08:44:07.235Z,15.60
2022-10-11T08:46:38.797Z,15.75
2022-10-11T08:49:10.383Z,15.90
2022-10-11T08:51:43.697Z,15.94
2022-10-11T08:54:21.973Z,16.15
2022-10-11T08:56:53.040Z,16.33
2022-10-11T08:59:32.212Z,16.40
2022-10-11T09:02:06.519Z,16.59
2022-10-11T09:04:38.579Z,16.45
2022-10-11T09:07:14.796Z,16.46
2022-10-11T09:10:10.846Z,16.45
2022-10-11T09:12:52.341Z,16.49
2022-10-11T09:15:31.020Z,16.63
2022-10-11T09:18:16.186Z,16.73
2022-10-11T09:21:03.883Z,16.94
2022-10-11T09:23:46.299Z,17.08
2022-10-11T09:26:26.671Z,17.29
2022-10-11T09:29:01.574Z,17.32
2022-10-11T09:31:31.102Z,17.48
2022-10-11T09:34:11.455Z,17.50
2022-10-11T09:36:49.045Z,17.50
2022-10-11T09:39:28.797Z,17.61
2022-10-11T09:42:02.828Z,17.72
2022-10-11T09:44:37.885Z,17.82
2022-10-11T09:47:16.236Z,17.94
2022-10-11T09:49:51.900Z,17.89
2022-10-11T09:52:25.726Z,17.96
2022-10-11T09:55:00.874Z,17.97
2022-10-11T09:57:34.305Z,18.04
2022-10-11T10:00:10.199Z,18.15
2022-10-11T10:02:49.081Z,18.20
2022-10-11T10:05:22.506Z,18.35
2022-10-11T10:08:05.261Z,18.40
2022-10-11T10:10:40.843Z,18.49
2022-10-11T10:13:26.153Z,18.53
2022-10-11T10:15:59.067Z,18.62
2022-10-11T10:18:32.490Z,18.80
2022-10-11T10:21:04.518Z,18.85
2022-10-11T10:23:37.135Z,18.93
2022-10-11T10:26:17.240Z,19.04
2022-10-11T10:29:05.407Z,19.24
2022-10-11T10:32:01.988Z,19.41
2022-10-11T10:34:36.802Z,19.37
2022-10-11T10:37:16.892Z,19.43
2022-10-11T10:39:51.046Z,19.47
2022-10-11T10:42:22.783Z,19.71
2022-10-11T10:44:57.234Z,19.86
2022-10-11T10:47:40.038Z,20.10
2022-10-11T10:50:15.121Z,20.19
2022-10-11T10:53:00.553Z,20.43
2022-10-11T10:55:36.835Z,20.43
2022-10-11T10:58:27.867Z,20.44
2022-10-11T11:01:19.063Z,20.78
2022-10-11T11:03:53.920Z,20.85
2022-10-11T11:06:28.445Z,20.92
2022-10-11T11:09:14.964Z,20.48
2022-10-11T11:11:59.022Z,20.32
2022-10-11T11:14:44.141Z,20.15
2022-10-11T11:17:36.164Z,19.96
2022-10-11T11:20:10.402Z,20.06
2022-10-11T11:22:54.974Z,20.10
2022-10-11T11:25:41.359Z,20.13
2022-10-11T11:28:27.559Z,20.15
2022-10-11T11:31:05.602Z,20.08
2022-10-11T11:33:48.651Z,20.16
2022-10-11T11:36:22.814Z,20.16
2022-10-11T11:38:55.708Z,20.05
2022-10-11T11:41:27.086Z,20.13
2022-10-11T11:44:13.347Z,20.09
2022-10-11T11:46:48.541Z,20.06
2022-10-11T11:49:26.440Z,20.16
2022-10-11T11:51:55.982Z,20.09
2022-10-11T11:54:38.285Z,20.05
2022-10-11T11:57:14.864Z,20.05
2022-10-11T11:59:56.255Z,20.10
2022-10-11T12:02:38.560Z,20.08
2022-10-11T12:05:11.665Z,20.26
2022-10-11T12:07:54.363Z,20.36
2022-10-11T12:10:54.789Z,20.13
2022-10-11T12:13:32.541Z,20.08
2022-10-11T12:16:13.265Z,20.27
2022-10-11T12:18:54.987Z,20.25
2022-10-11T12:21:37.262Z,20.37
2022-10-11T12:24:14.070Z,20.50
2022-10-11T12:26:47.156Z,20.51
2022-10-11T12:29:41.662Z,20.43
2022-10-11T12:32:59.903Z,20.58
2022-10-11T12:36:04.045Z,20.95
2022-10-11T12:38:43.838Z,21.06
2022-10-11T12:41:56.069Z,21.23
2022-10-11T12:44:26.448Z,21.29
2022-10-11T12:47:27.234Z,21.45
2022-10-11T12:50:26.196Z,21.63
2022-10-11T12:53:07.122Z,21.30
2022-10-11T12:55:51.106Z,21.39
2022-10-11T12:58:31.087Z,21.87
2022-10-11T13:01:24.252Z,21.54
2022-10-11T13:04:07.705Z,21.33
2022-10-11T13:06:51.266Z,21.32
2022-10-11T13:09:28.588Z,21.25
2022-10-11T13:12:04.491Z,21.05
2022-10-11T13:14:39.125Z,20.94
2022-10-11T13:17:25.093Z,20.57
2022-10-11T13:20:00.931Z,20.39
2022-10-11T13:22:33.189Z,20.15
2022-10-11T13:25:05.574Z,20.06
2022-10-11T13:27:39.593Z,19.89
2022-10-11T13:30:16.458Z,19.71
2022-10-11T13:32:49.624Z,19.68
2022-10-11T13:35:24.759Z,19.59
2022-10-11T13:38:00.441Z,19.62
2022-10-11T13:40:33.534Z,19.59
2022-10-11T13:43:11.230Z,19.67
2022-10-11T13:45:41.357Z,19.54
2022-10-11T13:48:18.971Z,19.37
2022-10-11T13:51:09.395Z,19.21
2022-10-11T13:53:41.218Z,19.28
2022-10-11T13:56:19.866Z,19.27
2022-10-11T13:58:50.707Z,19.24
2022-10-11T14:01:23.921Z,19.24
2022-10-11T14:03:58.154Z,19.35
2022-10-11T14:06:44.165Z,19.35
2022-10-11T14:09:29.945Z,19.43
2022-10-11T14:12:28.056Z,19.38
2022-10-11T14:15:01.839Z,19.35
2022-10-11T14:17:44.901Z,19.28
2022-10-11T14:20:22.602Z,19.32
2022-10-11T14:22:57.228Z,19.19
2022-10-11T14:25:30.784Z,19.16
2022-10-11T14:28:06.572Z,19.13
2022-10-11T14:30:42.174Z,19.00
2022-10-11T14:33:16.346Z,18.99
2022-10-11T14:35:48.597Z,18.99
2022-10-11T14:38:21.321Z,18.98
2022-10-11T14:40:52.629Z,18.96
2022-10-11T14:43:23.171Z,18.96
2022-10-11T14:45:56.612Z,18.95
2022-10-11T14:48:50.409Z,18.79
2022-10-11T14:51:15.447Z,18.71
2022-10-11T14:53:49.462Z,18.65
2022-10-11T14:56:21.491Z,18.51
2022-10-11T14:58:50.656Z,18.41
2022-10-11T15:01:21.092Z,18.37
2022-10-11T15:03:52.070Z,18.23
2022-10-11T15:06:22.747Z,18.15
2022-10-11T15:08:51.758Z,18.07
2022-10-11T15:11:22.272Z,17.93
2022-10-11T15:13:50.964Z,17.82
2022-10-11T15:16:23.791Z,17.79
2022-10-11T15:18:52.815Z,17.66
2022-10-11T15:21:23.005Z,17.46
2022-10-11T15:23:53.580Z,17.29
2022-10-11T15:26:24.054Z,17.10
2022-10-11T15:28:53.620Z,17.01
2022-10-11T15:31:26.895Z,16.84
2022-10-11T15:34:01.415Z,16.80
2022-10-11T15:36:34.177Z,16.80
2022-10-11T15:39:21.505Z,16.70
2022-10-11T15:41:51.376Z,16.53
2022-10-11T15:44:23.071Z,16.43
2022-10-11T15:47:02.150Z,16.33
2022-10-11T15:49:37.263Z,16.26
2022-10-11T15:52:07.277Z,16.13
2022-10-11T15:54:37.104Z,16.01
2022-10-11T15:57:05.524Z,15.92
2022-10-11T15:59:33.820Z,15.82
2022-10-11T16:02:04.024Z,15.77
2022-10-11T16:04:32.651Z,15.63
2022-10-11T16:07:05.183Z,15.61
2022-10-11T16:09:33.984Z,15.43
2022-10-11T16:12:03.172Z,15.37
2022-10-11T16:14:42.586Z,15.25
2022-10-11T16:17:15.481Z,15.15
2022-10-11T16:19:50.478Z,15.16
2022-10-11T16:22:26.854Z,14.93
2022-10-11T16:24:56.758Z,14.91
2022-10-11T16:27:24.912Z,14.75
2022-10-11T16:29:55.495Z,14.79
2022-10-11T16:32:25.594Z,14.79
2022-10-11T16:34:58.650Z,14.72
2022-10-11T16:37:29.373Z,14.65
2022-10-11T16:39:58.161Z,14.47
2022-10-11T16:42:29.223Z,14.40
2022-10-11T16:44:58.859Z,14.28
2022-10-11T16:47:28.967Z,14.17
2022-10-11T16:49:59.286Z,14.07
2022-10-11T16:52:29.717Z,13.98
2022-10-11T16:54:58.289Z,13.95
2022-10-11T16:57:26.729Z,13.89
2022-10-11T16:59:55.372Z,13.89
2022-10-11T17:02:31.334Z,13.86
2022-10-11T17:05:02.762Z,13.80
2022-10-11T17:07:32.200Z,13.75
2022-10-11T17:10:01.419Z,13.72
2022-10-11T17:12:32.354Z,13.68
2022-10-11T17:15:01.275Z,13.75
2022-10-11T17:17:31.556Z,13.73
2022-10-11T17:20:05.684Z,13.75
2022-10-11T17:22:35.523Z,13.82
2022-10-11T17:25:04.320Z,13.85
2022-10-11T17:27:33.495Z,13.80
2022-10-11T17:30:03.585Z,13.82
2022-10-11T17:32:36.809Z,13.79
2022-10-11T17:35:08.199Z,13.75
2022-10-11T17:37:37.542Z,13.79
2022-10-11T17:40:10.057Z,13.83
2022-10-11T17:42:42.760Z,13.83
2022-10-11T17:45:12.182Z,13.83
2022-10-11T17:47:40.217Z,13.82
2022-10-11T17:50:10.782Z,13.85
2022-10-11T17:52:39.327Z,13.86
2022-10-11T17:55:07.722Z,13.89
2022-10-11T17:57:37.353Z,13.89
2022-10-11T18:00:06.644Z,13.89
2022-10-11T18:02:34.767Z,13.87
2022-10-11T18:05:05.760Z,13.86
2022-10-11T18:07:38.184Z,13.86
2022-10-11T18:10:07.405Z,13.82
2022-10-11T18:12:36.385Z,13.80
2022-10-11T18:15:04.545Z,13.79
2022-10-11T18:17:34.030Z,13.85
2022-10-11T18:20:03.635Z,13.75
2022-10-11T18:22:32.158Z,13.58
2022-10-11T18:25:03.001Z,13.51
2022-10-11T18:27:31.181Z,13.42
2022-10-11T18:29:59.521Z,13.38
2022-10-11T18:32:27.966Z,13.45
2022-10-11T18:34:58.896Z,13.42
2022-10-11T18:37:28.910Z,13.32
2022-10-11T18:39:57.514Z,13.32
2022-10-11T18:42:27.129Z,13.25
2022-10-11T18:44:55.816Z,13.18
2022-10-11T18:47:24.894Z,13.18
2022-10-11T18:49:52.914Z,13.13
2022-10-11T18:52:22.259Z,13.08
2022-10-11T18:54:50.926Z,13.03
2022-10-11T18:57:23.788Z,12.97
2022-10-11T18:59:54.440Z,12.96
2022-10-11T19:02:23.813Z,13.02
2022-10-11T19:04:53.781Z,12.99
2022-10-11T19:07:23.369Z,13.02
2022-10-11T19:09:53.141Z,12.93
2022-10-11T19:12:22.337Z,12.77
2022-10-11T19:14:54.993Z,12.67
2022-10-11T19:17:24.936Z,12.56
2022-10-11T19:19:59.834Z,12.52
2022-10-11T19:22:28.355Z,12.44
2022-10-11T19:24:56.640Z,12.41
2022-10-11T19:27:25.066Z,12.36
2022-10-11T19:29:53.682Z,12.26
2022-10-11T19:32:21.847Z,12.21
2022-10-11T19:34:52.250Z,12.15
2022-10-11T19:37:21.511Z,12.11
2022-10-11T19:39:50.118Z,12.14
2022-10-11T19:42:20.323Z,12.08
2022-10-11T19:44:48.378Z,11.93
2022-10-11T19:47:17.068Z,11.94
2022-10-11T19:49:45.809Z,11.91
2022-10-11T19:52:21.556Z,11.94
2022-10-11T19:54:51.955Z,12.01
2022-10-11T19:57:22.779Z,12.04
2022-10-11T19:59:53.276Z,11.98
2022-10-11T20:02:22.250Z,11.90
2022-10-11T20:04:53.369Z,11.88
2022-10-11T20:07:26.217Z,11.97
2022-10-11T20:09:56.589Z,11.97
2022-10-11T20:12:29.366Z,11.91
2022-10-11T20:14:58.849Z,11.91
2022-10-11T20:17:45.644Z,11.98
2022-10-11T20:20:14.686Z,12.05
2022-10-11T20:22:47.393Z,12.10
2022-10-11T20:25:20.104Z,12.14
2022-10-11T20:27:56.895Z,12.14
2022-10-11T20:30:29.720Z,12.18
2022-10-11T20:32:59.632Z,12.28
2022-10-11T20:35:27.964Z,12.52
2022-10-11T20:37:59.934Z,12.39
2022-10-11T20:40:28.253Z,12.29
2022-10-11T20:42:59.939Z,12.25
2022-10-11T20:45:29.838Z,12.21
2022-10-11T20:47:59.231Z,12.22
2022-10-11T20:50:34.555Z,12.28
2022-10-11T20:53:05.141Z,12.34
2022-10-11T20:55:36.818Z,12.31
2022-10-11T20:58:05.593Z,12.31
2022-10-11T21:00:34.431Z,12.25
2022-10-11T21:03:08.312Z,12.24
2022-10-11T21:05:39.020Z,12.24
2022-10-11T21:08:08.803Z,12.24
2022-10-11T21:10:38.765Z,12.28
2022-10-11T21:13:09.245Z,12.29
2022-10-11T21:15:37.991Z,12.26
2022-10-11T21:18:08.179Z,12.31
2022-10-11T21:20:42.329Z,12.26
2022-10-11T21:23:15.967Z,12.17
2022-10-11T21:25:46.736Z,12.20
2022-10-11T21:28:16.435Z,12.14
2022-10-11T21:30:48.464Z,12.01
2022-10-11T21:33:18.242Z,11.93
2022-10-11T21:35:49.837Z,11.84
2022-10-11T21:38:24.958Z,11.80
2022-10-11T21:40:56.217Z,11.80
2022-10-11T21:43:26.480Z,11.81
2022-10-11T21:45:55.233Z,11.78
2022-10-11T21:48:24.244Z,11.74
2022-10-11T21:50:59.133Z,11.77
2022-10-11T21:53:32.787Z,11.71
2022-10-11T21:56:02.777Z,11.73
2022-10-11T21:58:32.860Z,11.67
2022-10-11T22:01:07.511Z,11.66
2022-10-11T22:03:36.871Z,11.70
2022-10-11T22:06:10.909Z,11.78
2022-10-11T22:08:41.636Z,11.70
2022-10-11T22:11:13.689Z,11.62
2022-10-11T22:13:42.467Z,11.62
2022-10-11T22:16:13.184Z,11.60
2022-10-11T22:18:44.790Z,11.60
2022-10-11T22:21:21.396Z,11.62
2022-10-11T22:23:55.756Z,11.69
2022-10-11T22:26:27.454Z,11.67
2022-10-11T22:29:01.999Z,11.69
2022-10-11T22:31:36.748Z,11.69
2022-10-11T22:34:06.739Z,11.70
2022-10-11T22:36:39.274Z,11.73
2022-10-11T22:39:11.760Z,11.69
2022-10-11T22:41:41.762Z,11.59
2022-10-11T22:44:13.568Z,11.59
2022-10-11T22:46:42.053Z,11.56
2022-10-11T22:49:12.737Z,11.53
2022-10-11T22:51:45.922Z,11.53
2022-10-11T22:54:21.646Z,11.47
2022-10-11T22:56:50.043Z,11.46
2022-10-11T22:59:18.226Z,11.42
2022-10-11T23:01:46.609Z,11.33
2022-10-11T23:04:17.851Z,11.26
2022-10-11T23:06:46.140Z,11.21
2022-10-11T23:09:16.491Z,11.09
2022-10-11T23:11:45.361Z,11.07
2022-10-11T23:14:17.923Z,10.98
2022-10-11T23:16:48.269Z,10.97
2022-10-11T23:19:18.118Z,11.04
2022-10-11T23:21:46.597Z,10.94
2022-10-11T23:24:16.739Z,10.91
2022-10-11T23:26:45.285Z,10.94
2022-10-11T23:29:15.406Z,10.92
2022-10-11T23:31:45.132Z,10.87
2022-10-11T23:34:13.364Z,10.82
2022-10-11T23:36:42.657Z,10.80
2022-10-11T23:39:12.684Z,10.75
2022-10-11T23:41:46.969Z,10.73
2022-10-11T23:44:15.511Z,10.70
2022-10-11T23:46:43.637Z,10.74
2022-10-11T23:49:14.970Z,10.68
2022-10-11T23:51:50.490Z,10.65
2022-10-11T23:54:19.389Z,10.63
2022-10-11T23:56:49.063Z,10.64
2022-10-11T23:59:18.062Z,10.61
